createdAt,value
2019-05-15T00:00:23.884Z,5.87
2019-05-15T00:02:58.828Z,5.80
2019-05-15T00:05:30.574Z,6.20
2019-05-15T00:08:03.043Z,6.97
2019-05-15T00:10:38.584Z,7.43
2019-05-15T00:13:10.062Z,7.13
2019-05-15T00:15:42.473Z,7.53
2019-05-15T00:18:15.031Z,7.97
2019-05-15T00:20:49.689Z,7.10
2019-05-15T00:23:21.790Z,7.57
2019-05-15T00:25:54.351Z,7.53
2019-05-15T00:28:28.013Z,7.90
2019-05-15T00:31:00.663Z,8.00
2019-05-15T00:33:33.067Z,7.83
2019-05-15T00:36:05.559Z,7.80
2019-05-15T00:38:38.982Z,8.00
2019-05-15T00:41:11.680Z,7.40
2019-05-15T00:43:44.394Z,7.73
2019-05-15T00:46:18.358Z,7.63
2019-05-15T00:48:51.072Z,8.07
2019-05-15T00:51:23.366Z,7.43
2019-05-15T00:54:08.471Z,7.63
2019-05-15T00:56:41.071Z,8.20
2019-05-15T00:59:24.019Z,7.87
2019-05-15T01:01:48.800Z,8.47
2019-05-15T01:04:21.561Z,7.83
2019-05-15T01:06:53.891Z,7.90
2019-05-15T01:09:29.068Z,8.20
2019-05-15T01:12:01.247Z,8.27
2019-05-15T01:14:33.943Z,8.07
2019-05-15T01:17:08.881Z,7.83
2019-05-15T01:19:40.860Z,8.70
2019-05-15T01:22:13.515Z,9.00
2019-05-15T01:24:48.563Z,8.50
2019-05-15T01:27:20.641Z,8.70
2019-05-15T01:29:52.990Z,9.00
2019-05-15T01:32:25.645Z,8.33
2019-05-15T01:34:58.278Z,8.83
2019-05-15T01:37:30.932Z,8.03
2019-05-15T01:40:03.326Z,8.63
2019-05-15T01:42:38.371Z,8.80
2019-05-15T01:45:11.947Z,8.73
2019-05-15T01:47:44.309Z,8.03
2019-05-15T01:50:18.539Z,8.03
2019-05-15T01:52:50.898Z,7.93
2019-05-15T01:55:23.604Z,8.00
2019-05-15T01:57:58.093Z,8.73
2019-05-15T02:00:30.765Z,8.63
2019-05-15T02:03:03.063Z,8.57
2019-05-15T02:05:35.608Z,8.60
2019-05-15T02:08:20.510Z,8.20
2019-05-15T02:10:53.143Z,7.70
2019-05-15T02:13:25.558Z,8.67
2019-05-15T02:15:58.896Z,7.47
2019-05-15T02:18:31.400Z,7.00
2019-05-15T02:21:06.552Z,8.03
2019-05-15T02:23:38.793Z,8.33
2019-05-15T02:26:11.434Z,7.97
2019-05-15T02:28:44.081Z,7.70
2019-05-15T02:31:19.490Z,7.40
2019-05-15T02:33:50.761Z,7.10
2019-05-15T02:36:24.440Z,6.63
2019-05-15T02:38:59.673Z,7.00
2019-05-15T02:41:31.537Z,6.10
2019-05-15T02:44:04.466Z,7.20
2019-05-15T02:46:39.186Z,6.67
2019-05-15T02:49:11.484Z,6.70
2019-05-15T02:51:44.203Z,7.43
2019-05-15T02:54:19.556Z,6.53
2019-05-15T02:56:50.552Z,6.73
2019-05-15T02:59:23.118Z,6.50
2019-05-15T03:01:55.641Z,6.47
2019-05-15T03:04:29.078Z,6.80
2019-05-15T03:07:02.037Z,7.03
2019-05-15T03:09:34.427Z,7.20
2019-05-15T03:12:09.094Z,6.73
2019-05-15T03:14:41.018Z,6.30
2019-05-15T03:17:13.664Z,6.20
2019-05-15T03:19:49.778Z,6.50
2019-05-15T03:22:21.598Z,5.73
2019-05-15T03:24:54.215Z,6.73
2019-05-15T03:27:29.653Z,6.67
2019-05-15T03:30:01.248Z,6.67
2019-05-15T03:32:42.486Z,6.60
2019-05-15T03:35:14.471Z,6.40
2019-05-15T03:37:44.361Z,6.50
2019-05-15T03:40:19.333Z,6.73
2019-05-15T03:42:51.344Z,7.00
2019-05-15T03:45:24.003Z,5.87
2019-05-15T03:47:59.056Z,6.67
2019-05-15T03:50:31.039Z,6.90
2019-05-15T03:53:04.109Z,6.80
2019-05-15T03:55:40.013Z,9.33
2019-05-15T03:58:10.774Z,7.93
2019-05-15T04:00:43.704Z,9.60
2019-05-15T04:03:17.105Z,7.47
2019-05-15T04:05:50.523Z,7.37
2019-05-15T04:08:23.088Z,7.00
2019-05-15T04:10:59.359Z,6.83
2019-05-15T04:13:31.115Z,5.90
2019-05-15T04:16:04.394Z,6.60
2019-05-15T04:18:39.647Z,7.07
2019-05-15T04:21:12.155Z,13.23
2019-05-15T04:23:46.054Z,9.30
2019-05-15T04:26:19.989Z,9.57
2019-05-15T04:28:55.451Z,6.47
2019-05-15T04:31:35.462Z,6.83
2019-05-15T04:34:01.993Z,8.30
2019-05-15T04:36:34.349Z,6.47
2019-05-15T04:39:09.804Z,6.93
2019-05-15T04:41:42.322Z,8.10
2019-05-15T04:44:15.039Z,5.13
2019-05-15T04:46:49.760Z,5.60
2019-05-15T04:49:21.687Z,5.97
2019-05-15T04:52:00.200Z,5.20
2019-05-15T04:54:29.329Z,5.03
2019-05-15T04:57:01.959Z,4.93
2019-05-15T04:59:34.266Z,4.93
2019-05-15T05:02:19.364Z,5.17
2019-05-15T05:04:41.146Z,5.00
2019-05-15T05:07:13.645Z,5.00
2019-05-15T05:09:48.766Z,4.80
2019-05-15T05:12:20.565Z,4.67
2019-05-15T05:14:53.092Z,4.50
2019-05-15T05:17:28.667Z,4.50
2019-05-15T05:19:59.933Z,4.60
2019-05-15T05:22:32.509Z,4.40
2019-05-15T05:25:07.851Z,4.83
2019-05-15T05:27:39.778Z,3.97
2019-05-15T05:30:12.347Z,4.57
2019-05-15T05:32:44.949Z,4.10
2019-05-15T05:35:18.531Z,4.07
2019-05-15T05:37:51.076Z,4.23
2019-05-15T05:40:23.968Z,4.10
2019-05-15T05:42:56.387Z,3.83
2019-05-15T05:45:29.022Z,3.97
2019-05-15T05:48:01.431Z,4.07
2019-05-15T05:50:44.760Z,3.93
2019-05-15T05:53:17.346Z,3.57
2019-05-15T05:55:52.910Z,3.27
2019-05-15T05:58:23.974Z,3.87
2019-05-15T06:00:58.435Z,3.70
2019-05-15T06:03:30.596Z,3.20
2019-05-15T06:06:03.013Z,3.53
2019-05-15T06:08:35.405Z,3.27
2019-05-15T06:11:09.739Z,3.77
2019-05-15T06:13:41.919Z,4.00
2019-05-15T06:16:14.791Z,3.23
2019-05-15T06:18:49.125Z,3.40
2019-05-15T06:21:21.621Z,3.17
2019-05-15T06:23:55.900Z,2.97
2019-05-15T06:26:28.312Z,3.20
2019-05-15T06:29:00.716Z,4.43
2019-05-15T06:31:33.297Z,4.33
2019-05-15T06:34:05.693Z,3.87
2019-05-15T06:36:39.241Z,3.87
2019-05-15T06:39:13.042Z,3.37
2019-05-15T06:41:48.082Z,3.70
2019-05-15T06:44:19.688Z,3.50
2019-05-15T06:46:51.975Z,2.80
2019-05-15T06:49:24.513Z,3.17
2019-05-15T06:51:58.130Z,3.50
2019-05-15T06:54:30.471Z,3.07
2019-05-15T06:57:03.118Z,3.10
2019-05-15T06:59:35.398Z,3.10
2019-05-15T07:02:08.092Z,2.80
2019-05-15T07:04:48.673Z,2.90
2019-05-15T07:07:20.640Z,3.90
2019-05-15T07:09:52.987Z,7.30
2019-05-15T07:12:27.981Z,4.67
2019-05-15T07:14:59.619Z,3.17
2019-05-15T07:17:32.242Z,2.87
2019-05-15T07:20:04.582Z,2.77
2019-05-15T07:22:39.118Z,2.90
2019-05-15T07:25:12.124Z,3.20
2019-05-15T07:27:44.523Z,4.77
2019-05-15T07:30:18.734Z,4.10
2019-05-15T07:32:51.727Z,4.20
2019-05-15T07:35:24.494Z,3.87
2019-05-15T07:37:58.628Z,2.90
2019-05-15T07:40:31.959Z,2.60
2019-05-15T07:43:04.766Z,2.90
2019-05-15T07:45:43.560Z,2.93
2019-05-15T07:48:11.820Z,3.13
2019-05-15T07:50:44.177Z,4.30
2019-05-15T07:53:19.270Z,4.07
2019-05-15T07:55:51.522Z,3.30
2019-05-15T07:58:24.343Z,2.50
2019-05-15T08:00:58.986Z,3.67
2019-05-15T08:03:31.137Z,6.50
2019-05-15T08:06:03.800Z,2.63
2019-05-15T08:08:36.170Z,2.77
2019-05-15T08:11:20.178Z,2.47
2019-05-15T08:13:42.979Z,2.60
2019-05-15T08:16:17.953Z,2.60
2019-05-15T08:18:49.680Z,2.37
2019-05-15T08:21:22.341Z,2.70
2019-05-15T08:23:54.794Z,2.17
2019-05-15T08:26:28.345Z,2.20
2019-05-15T08:29:00.952Z,2.20
2019-05-15T08:31:33.256Z,2.17
2019-05-15T08:34:15.316Z,2.10
2019-05-15T08:36:40.058Z,2.30
2019-05-15T08:39:12.682Z,2.27
2019-05-15T08:41:45.107Z,2.20
2019-05-15T08:44:18.700Z,1.80
2019-05-15T08:46:51.429Z,2.00
2019-05-15T08:49:23.767Z,2.10
2019-05-15T08:51:58.243Z,2.00
2019-05-15T08:54:30.355Z,1.70
2019-05-15T08:57:02.777Z,2.10
2019-05-15T08:59:38.011Z,2.20
2019-05-15T09:02:09.554Z,2.30
2019-05-15T09:04:41.869Z,1.90
2019-05-15T09:07:14.280Z,1.97
2019-05-15T09:09:48.681Z,2.20
2019-05-15T09:12:20.959Z,2.00
2019-05-15T09:14:54.046Z,1.80
2019-05-15T09:17:28.564Z,2.03
2019-05-15T09:20:00.696Z,2.03
2019-05-15T09:22:33.339Z,1.80
2019-05-15T09:25:08.735Z,1.90
2019-05-15T09:27:40.765Z,1.83
2019-05-15T09:30:15.011Z,1.90
2019-05-15T09:32:48.416Z,2.23
2019-05-15T09:35:22.318Z,1.80
2019-05-15T09:37:54.692Z,2.00
2019-05-15T09:40:41.782Z,3.77
2019-05-15T09:43:01.427Z,2.47
2019-05-15T09:45:34.023Z,4.63
2019-05-15T09:48:09.695Z,2.27
2019-05-15T09:50:41.029Z,4.20
2019-05-15T09:53:13.860Z,2.60
2019-05-15T09:55:49.003Z,2.70
2019-05-15T09:58:21.047Z,2.40
2019-05-15T10:00:53.809Z,2.30
2019-05-15T10:03:28.270Z,2.10
2019-05-15T10:06:00.368Z,2.00
2019-05-15T10:08:32.792Z,2.20
2019-05-15T10:11:05.690Z,2.27
2019-05-15T10:13:38.549Z,1.90
2019-05-15T10:16:11.308Z,1.90
2019-05-15T10:18:43.982Z,1.93
2019-05-15T10:21:18.637Z,1.57
2019-05-15T10:23:50.575Z,2.43
2019-05-15T10:26:22.961Z,2.17
2019-05-15T10:28:58.432Z,2.33
2019-05-15T10:31:30.683Z,2.03
2019-05-15T10:34:03.060Z,2.10
2019-05-15T10:36:35.815Z,2.40
2019-05-15T10:39:08.796Z,2.70
2019-05-15T10:41:41.399Z,2.20
2019-05-15T10:44:13.927Z,1.80
2019-05-15T10:46:48.292Z,2.07
2019-05-15T10:49:21.017Z,2.03
2019-05-15T10:51:53.651Z,2.10
2019-05-15T10:54:28.637Z,2.00
2019-05-15T10:57:00.886Z,1.90
2019-05-15T10:59:33.484Z,1.83
2019-05-15T11:02:08.398Z,2.00
2019-05-15T11:04:40.340Z,1.97
2019-05-15T11:07:12.794Z,2.20
2019-05-15T11:09:45.826Z,1.80
2019-05-15T11:12:18.961Z,2.13
2019-05-15T11:14:51.744Z,2.00
2019-05-15T11:17:24.115Z,1.90
2019-05-15T11:19:58.624Z,2.10
2019-05-15T11:22:30.703Z,2.03
2019-05-15T11:25:03.205Z,1.80
2019-05-15T11:27:35.582Z,1.90
2019-05-15T11:30:09.061Z,1.93
2019-05-15T11:32:41.541Z,2.17
2019-05-15T11:35:18.001Z,1.87
2019-05-15T11:37:56.758Z,2.07
2019-05-15T11:40:24.131Z,2.40
2019-05-15T11:42:56.586Z,2.40
2019-05-15T11:45:29.575Z,1.90
2019-05-15T11:48:02.300Z,2.50
2019-05-15T11:50:34.795Z,2.13
2019-05-15T11:53:08.709Z,2.47
2019-05-15T11:55:41.553Z,2.77
2019-05-15T11:58:13.971Z,2.60
2019-05-15T12:00:48.770Z,1.97
2019-05-15T12:03:24.610Z,2.37
2019-05-15T12:05:54.888Z,2.30
2019-05-15T12:08:29.348Z,2.37
2019-05-15T12:11:01.506Z,2.37
2019-05-15T12:13:34.485Z,2.40
2019-05-15T12:16:06.820Z,2.53
2019-05-15T12:18:39.611Z,3.93
2019-05-15T12:21:11.975Z,3.33
2019-05-15T12:23:44.689Z,3.70
2019-05-15T12:26:17.136Z,2.50
2019-05-15T12:28:49.553Z,3.07
2019-05-15T12:33:58.189Z,4.10
2019-05-15T12:36:50.858Z,3.00
2019-05-15T12:39:10.610Z,3.20
2019-05-15T12:39:23.744Z,3.37
2019-05-15T12:59:41.537Z,6.07
2019-05-15T13:02:14.287Z,6.53
2019-05-15T13:04:46.940Z,4.00
2019-05-15T13:07:19.951Z,3.00
2019-05-15T13:09:53.816Z,3.20
2019-05-15T13:12:28.591Z,3.30
2019-05-15T13:15:00.709Z,3.17
2019-05-15T13:17:33.112Z,3.37
2019-05-15T13:20:05.882Z,3.40
2019-05-15T13:22:39.401Z,3.93
2019-05-15T13:25:31.098Z,4.30
2019-05-15T13:28:03.110Z,4.40
2019-05-15T13:30:40.192Z,4.33
2019-05-15T13:33:09.921Z,4.30
2019-05-15T13:35:42.451Z,4.63
2019-05-15T13:38:14.321Z,4.80
2019-05-15T13:40:48.193Z,5.40
2019-05-15T13:43:19.845Z,5.83
2019-05-15T13:45:51.806Z,5.10
2019-05-15T13:48:23.831Z,5.47
2019-05-15T13:50:59.002Z,5.83
2019-05-15T13:53:30.430Z,5.77
2019-05-15T13:56:02.651Z,5.30
2019-05-15T13:58:34.622Z,5.37
2019-05-15T14:01:09.178Z,5.03
2019-05-15T14:03:40.374Z,5.90
2019-05-15T14:06:12.259Z,5.97
2019-05-15T14:08:44.172Z,5.77
2019-05-15T14:11:16.126Z,6.90
2019-05-15T14:13:49.581Z,9.77
2019-05-15T14:16:21.622Z,9.20
2019-05-15T14:18:54.005Z,8.00
2019-05-15T14:21:28.371Z,5.27
2019-05-15T14:24:01.647Z,5.57
2019-05-15T14:26:34.418Z,5.20
2019-05-15T14:29:09.031Z,5.70
2019-05-15T14:31:40.930Z,5.80
2019-05-15T14:34:13.402Z,5.90
2019-05-15T14:36:48.207Z,5.70
2019-05-15T14:39:20.972Z,5.63
2019-05-15T14:41:53.695Z,5.60
2019-05-15T14:44:25.965Z,7.50
2019-05-15T14:46:58.423Z,5.10
2019-05-15T14:49:34.817Z,5.07
2019-05-15T14:52:09.281Z,5.07
2019-05-15T14:54:39.869Z,5.00
2019-05-15T14:57:12.372Z,5.43
2019-05-15T14:59:44.749Z,5.67
2019-05-15T15:02:18.976Z,4.50
2019-05-15T15:04:51.444Z,4.10
2019-05-15T15:07:23.939Z,4.43
2019-05-15T15:09:58.257Z,4.33
2019-05-15T15:12:30.888Z,4.37
2019-05-15T15:15:03.594Z,3.80
2019-05-15T15:17:38.369Z,4.30
2019-05-15T15:20:10.494Z,4.27
2019-05-15T15:22:43.271Z,4.40
2019-05-15T15:25:16.088Z,4.03
2019-05-15T15:27:48.917Z,4.30
2019-05-15T15:30:21.788Z,4.60
2019-05-15T15:32:54.390Z,4.10
2019-05-15T15:35:28.876Z,4.77
2019-05-15T15:38:01.579Z,4.57
2019-05-15T15:40:34.266Z,4.27
2019-05-15T15:43:08.849Z,4.30
2019-05-15T15:45:41.370Z,3.90
2019-05-15T15:48:13.811Z,4.03
2019-05-15T15:50:48.672Z,5.10
2019-05-15T15:53:20.488Z,4.70
2019-05-15T15:55:53.111Z,4.03
2019-05-15T15:58:28.634Z,4.23
2019-05-15T16:01:00.758Z,4.73
2019-05-15T16:03:33.147Z,5.10
2019-05-15T16:06:06.551Z,4.10
2019-05-15T16:08:51.952Z,4.00
2019-05-15T16:11:13.362Z,4.43
2019-05-15T16:13:46.496Z,3.70
2019-05-15T16:16:19.880Z,3.60
2019-05-15T16:18:52.653Z,3.47
2019-05-15T16:21:25.426Z,3.20
2019-05-15T16:23:58.341Z,3.40
2019-05-15T16:26:31.051Z,3.43
2019-05-15T16:29:03.586Z,3.87
2019-05-15T16:31:38.386Z,4.63
2019-05-15T16:34:10.317Z,3.70
2019-05-15T16:36:42.788Z,4.80
2019-05-15T16:39:15.249Z,3.37
2019-05-15T16:41:48.920Z,4.40
2019-05-15T16:44:21.549Z,3.83
2019-05-15T16:46:54.138Z,3.97
2019-05-15T16:49:28.490Z,3.43
2019-05-15T16:52:00.931Z,3.20
2019-05-15T16:54:35.063Z,4.17
2019-05-15T16:57:09.925Z,3.60
2019-05-15T16:59:42.195Z,3.90
2019-05-15T17:02:33.477Z,9.30
2019-05-15T17:05:06.489Z,15.50
2019-05-15T17:07:49.862Z,7.60
2019-05-15T17:10:22.262Z,6.47
2019-05-15T17:12:54.648Z,3.60
2019-05-15T17:15:27.991Z,2.90
2019-05-15T17:18:00.712Z,4.13
2019-05-15T17:20:33.130Z,2.77
2019-05-15T17:23:05.529Z,4.20
2019-05-15T17:25:38.451Z,3.70
2019-05-15T17:28:11.008Z,3.73
2019-05-15T17:30:43.920Z,2.83
2019-05-15T17:33:18.455Z,3.53
2019-05-15T17:35:50.467Z,3.20
2019-05-15T17:38:22.988Z,6.30
2019-05-15T17:40:57.844Z,10.53
2019-05-15T17:43:30.292Z,10.10
2019-05-15T17:46:03.147Z,5.80
2019-05-15T17:48:35.671Z,5.53
2019-05-15T17:51:09.112Z,8.10
2019-05-15T17:53:41.978Z,9.07
2019-05-15T17:56:14.744Z,34.90
2019-05-15T17:58:48.716Z,7.53
2019-05-15T18:01:21.786Z,8.60
2019-05-15T18:03:54.341Z,5.60
2019-05-15T18:06:28.873Z,4.70
2019-05-15T18:09:03.845Z,4.43
2019-05-15T18:11:38.341Z,4.27
2019-05-15T18:14:10.740Z,3.97
2019-05-15T18:16:43.199Z,5.20
2019-05-15T18:19:15.615Z,6.47
2019-05-15T18:21:49.797Z,5.40
2019-05-15T18:24:22.667Z,5.20
2019-05-15T18:26:55.399Z,7.70
2019-05-15T18:29:28.462Z,7.97
2019-05-15T18:32:01.200Z,6.67
2019-05-15T18:34:33.673Z,5.87
2019-05-15T18:37:08.403Z,4.33
2019-05-15T18:39:40.663Z,6.43
2019-05-15T18:42:14.287Z,5.17
2019-05-15T18:44:48.233Z,5.07
2019-05-15T18:47:20.781Z,6.87
2019-05-15T18:50:05.148Z,5.40
2019-05-15T18:52:28.700Z,6.33
2019-05-15T18:55:01.363Z,15.83
2019-05-15T18:57:34.106Z,7.60
2019-05-15T19:00:08.857Z,4.73
2019-05-15T19:02:42.497Z,10.67
2019-05-15T19:05:18.508Z,5.37
2019-05-15T19:07:51.646Z,4.87
2019-05-15T19:10:24.008Z,4.97
2019-05-15T19:12:58.145Z,5.50
2019-05-15T19:15:30.771Z,4.30
2019-05-15T19:18:03.274Z,4.83
2019-05-15T19:20:35.387Z,5.10
2019-05-15T19:23:08.162Z,5.10
2019-05-15T19:25:40.979Z,5.73
2019-05-15T19:28:13.709Z,6.13
2019-05-15T19:30:48.090Z,8.70
2019-05-15T19:33:33.302Z,6.93
2019-05-15T19:35:55.178Z,5.70
2019-05-15T19:38:28.001Z,21.47
2019-05-15T19:41:12.049Z,7.30
2019-05-15T19:43:44.687Z,5.13
2019-05-15T19:46:16.712Z,8.17
2019-05-15T19:48:49.045Z,5.17
2019-05-15T19:51:21.453Z,4.50
2019-05-15T19:53:53.919Z,10.07
2019-05-15T19:56:26.009Z,4.23
2019-05-15T19:58:58.375Z,4.23
2019-05-15T20:01:30.586Z,4.13
2019-05-15T20:04:02.748Z,3.83
2019-05-15T20:06:34.907Z,3.60
2019-05-15T20:09:08.457Z,3.90
2019-05-15T20:11:40.600Z,4.50
2019-05-15T20:14:12.715Z,3.90
2019-05-15T20:16:44.916Z,3.83
2019-05-15T20:19:18.123Z,4.33
2019-05-15T20:21:50.360Z,4.13
2019-05-15T20:24:22.521Z,4.30
2019-05-15T20:26:54.612Z,4.10
2019-05-15T20:29:28.885Z,4.03
2019-05-15T20:32:00.721Z,3.93
2019-05-15T20:34:33.025Z,4.20
2019-05-15T20:37:05.288Z,3.47
2019-05-15T20:39:38.655Z,3.90
2019-05-15T20:42:11.168Z,3.63
2019-05-15T20:44:44.034Z,3.20
2019-05-15T20:47:18.552Z,3.77
2019-05-15T20:49:49.902Z,3.53
2019-05-15T20:52:21.972Z,3.70
2019-05-15T20:54:54.121Z,3.53
2019-05-15T20:57:28.272Z,3.77
2019-05-15T21:00:00.029Z,3.43
2019-05-15T21:02:32.066Z,3.90
2019-05-15T21:05:04.298Z,3.97
2019-05-15T21:07:42.114Z,4.10
2019-05-15T21:10:11.314Z,3.90
2019-05-15T21:12:43.823Z,3.80
2019-05-15T21:15:21.513Z,4.70
2019-05-15T21:17:58.362Z,4.50
2019-05-15T21:20:25.872Z,5.07
2019-05-15T21:22:57.974Z,4.90
2019-05-15T21:25:32.202Z,4.70
2019-05-15T21:28:04.867Z,4.30
2019-05-15T21:30:37.922Z,4.33
2019-05-15T21:33:11.298Z,4.77
2019-05-15T21:35:43.404Z,4.33
2019-05-15T21:38:15.635Z,4.30
2019-05-15T21:40:48.532Z,4.47
2019-05-15T21:43:21.291Z,4.67
2019-05-15T21:45:53.889Z,3.83
2019-05-15T21:48:25.953Z,3.90
2019-05-15T21:50:59.136Z,3.90
2019-05-15T21:53:31.513Z,3.50
2019-05-15T21:56:04.075Z,3.37
2019-05-15T21:58:37.716Z,3.57
2019-05-15T22:01:11.981Z,3.23
2019-05-15T22:03:44.514Z,2.90
2019-05-15T22:06:18.560Z,2.43
2019-05-15T22:08:50.794Z,2.87
2019-05-15T22:11:23.824Z,8.43
2019-05-15T22:13:58.278Z,5.37
2019-05-15T22:16:30.139Z,5.20
2019-05-15T22:19:02.281Z,9.47
2019-05-15T22:21:35.231Z,6.10
2019-05-15T22:24:08.732Z,5.00
2019-05-15T22:26:41.378Z,6.40
2019-05-15T22:29:14.033Z,4.07
2019-05-15T22:31:48.678Z,4.13
2019-05-15T22:34:21.002Z,2.80
2019-05-15T22:36:53.355Z,2.57
2019-05-15T22:39:27.945Z,2.20
2019-05-15T22:42:00.378Z,2.57
2019-05-15T22:44:32.880Z,2.30
2019-05-15T22:47:05.022Z,2.23
2019-05-15T22:49:38.062Z,2.00
2019-05-15T22:52:10.730Z,2.10
2019-05-15T22:54:43.855Z,2.20
2019-05-15T22:57:16.851Z,2.07
2019-05-15T22:59:49.308Z,2.00
2019-05-15T23:02:22.063Z,2.03
2019-05-15T23:04:54.792Z,1.80
2019-05-15T23:07:28.157Z,2.10
2019-05-15T23:10:02.049Z,1.93
2019-05-15T23:12:35.197Z,2.17
2019-05-15T23:15:10.213Z,2.30
2019-05-15T23:17:42.827Z,2.10
2019-05-15T23:20:17.744Z,2.03
2019-05-15T23:22:50.511Z,2.63
2019-05-15T23:25:23.207Z,2.53
2019-05-15T23:27:58.159Z,2.30
2019-05-15T23:30:30.292Z,2.10
2019-05-15T23:33:02.918Z,2.10
2019-05-15T23:35:38.325Z,2.30
2019-05-15T23:38:09.547Z,2.53
2019-05-15T23:40:42.172Z,2.30
2019-05-15T23:43:14.751Z,2.40
2019-05-15T23:45:48.363Z,1.93
2019-05-15T23:48:21.161Z,2.20
2019-05-15T23:50:53.846Z,2.20
2019-05-15T23:53:28.834Z,1.80
2019-05-15T23:56:01.137Z,2.00
2019-05-15T23:58:33.573Z,2.20
